createdAt,value
2022-07-28T00:00:39.972Z,61
2022-07-28T00:01:44.731Z,61
2022-07-28T00:02:49.514Z,61
2022-07-28T00:03:54.821Z,61
2022-07-28T00:04:59.381Z,61
2022-07-28T00:06:03.669Z,61
2022-07-28T00:07:08.945Z,61
2022-07-28T00:08:14.324Z,61
2022-07-28T00:09:18.655Z,61
2022-07-28T00:10:23.573Z,61
2022-07-28T00:11:28.924Z,61
2022-07-28T00:12:33.445Z,61
2022-07-28T00:13:37.865Z,62
2022-07-28T00:14:42.901Z,62
2022-07-28T00:15:48.175Z,61
2022-07-28T00:16:52.745Z,62
2022-07-28T00:17:57.068Z,62
2022-07-28T00:19:02.154Z,62
2022-07-28T00:20:07.813Z,62
2022-07-28T00:21:12.505Z,62
2022-07-28T00:22:17.296Z,62
2022-07-28T00:23:22.389Z,62
2022-07-28T00:24:27.208Z,62
2022-07-28T00:25:32.140Z,62
2022-07-28T00:26:36.723Z,62
2022-07-28T00:27:41.016Z,62
2022-07-28T00:28:45.453Z,62
2022-07-28T00:30:54.180Z,62
2022-07-28T00:32:03.225Z,62
2022-07-28T00:33:07.846Z,62
2022-07-28T00:34:12.635Z,62
2022-07-28T00:35:17.488Z,62
2022-07-28T00:36:23.917Z,62
2022-07-28T00:37:26.816Z,62
2022-07-28T00:38:31.837Z,62
2022-07-28T00:39:37.001Z,62
2022-07-28T00:40:42.117Z,62
2022-07-28T00:41:51.816Z,62
2022-07-28T00:42:56.518Z,62
2022-07-28T00:44:01.463Z,62
2022-07-28T00:45:05.814Z,62
2022-07-28T00:46:10.522Z,62
2022-07-28T00:47:15.920Z,62
2022-07-28T00:48:20.828Z,62
2022-07-28T00:49:25.870Z,62
2022-07-28T00:50:30.249Z,62
2022-07-28T00:51:35.897Z,62
2022-07-28T00:52:40.513Z,62
2022-07-28T00:53:45.559Z,62
2022-07-28T00:54:49.804Z,62
2022-07-28T00:56:02.987Z,62
2022-07-28T00:57:00.663Z,62
2022-07-28T00:58:05.192Z,62
2022-07-28T00:59:09.828Z,62
2022-07-28T01:00:14.288Z,62
2022-07-28T01:01:18.929Z,62
2022-07-28T01:02:24.750Z,62
2022-07-28T01:03:29.612Z,62
2022-07-28T01:04:35.009Z,62
2022-07-28T01:05:43.125Z,62
2022-07-28T01:06:56.369Z,62
2022-07-28T01:08:08.745Z,62
2022-07-28T01:09:18.225Z,62
2022-07-28T01:10:27.719Z,62
2022-07-28T01:11:41.659Z,62
2022-07-28T01:12:44.868Z,62
2022-07-28T01:13:52.357Z,62
2022-07-28T01:15:02.440Z,62
2022-07-28T01:16:12.872Z,62
2022-07-28T01:17:18.922Z,62
2022-07-28T01:18:35.796Z,62
2022-07-28T01:19:40.568Z,62
2022-07-28T01:20:54.014Z,62
2022-07-28T01:22:04.708Z,62
2022-07-28T01:23:09.909Z,62
2022-07-28T01:24:15.062Z,62
2022-07-28T01:25:24.487Z,62
2022-07-28T01:26:37.401Z,62
2022-07-28T01:27:52.082Z,62
2022-07-28T01:29:01.865Z,62
2022-07-28T01:30:15.738Z,62
2022-07-28T01:31:30.135Z,62
2022-07-28T01:32:43.276Z,62
2022-07-28T01:33:47.988Z,62
2022-07-28T01:34:52.673Z,62
2022-07-28T01:36:07.521Z,62
2022-07-28T01:37:20.873Z,62
2022-07-28T01:38:25.706Z,62
2022-07-28T01:39:30.069Z,62
2022-07-28T01:40:34.955Z,62
2022-07-28T01:41:39.409Z,62
2022-07-28T01:42:44.312Z,62
2022-07-28T01:43:49.087Z,62
2022-07-28T01:44:53.433Z,62
2022-07-28T01:45:58.351Z,62
2022-07-28T01:47:02.977Z,62
2022-07-28T01:48:08.625Z,62
2022-07-28T01:49:13.615Z,62
2022-07-28T01:50:18.629Z,62
2022-07-28T01:51:23.273Z,62
2022-07-28T01:52:28.223Z,62
2022-07-28T01:53:37.663Z,62
2022-07-28T01:54:38.289Z,62
2022-07-28T01:55:43.346Z,62
2022-07-28T01:56:48.140Z,62
2022-07-28T01:57:53.925Z,62
2022-07-28T01:58:58.852Z,62
2022-07-28T02:00:07.161Z,62
2022-07-28T02:01:12.033Z,62
2022-07-28T02:02:16.237Z,62
2022-07-28T02:03:25.449Z,62
2022-07-28T02:04:30.239Z,62
2022-07-28T02:05:34.916Z,62
2022-07-28T02:06:39.245Z,62
2022-07-28T02:07:48.557Z,62
2022-07-28T02:08:58.340Z,62
2022-07-28T02:10:07.566Z,62
2022-07-28T02:11:15.120Z,62
2022-07-28T02:12:29.418Z,62
2022-07-28T02:13:34.516Z,62
2022-07-28T02:14:39.493Z,62
2022-07-28T02:15:44.039Z,62
2022-07-28T02:16:48.455Z,62
2022-07-28T02:18:01.028Z,62
2022-07-28T02:19:10.145Z,62
2022-07-28T02:20:15.432Z,62
2022-07-28T02:21:19.965Z,62
2022-07-28T02:22:29.317Z,62
2022-07-28T02:23:34.504Z,62
2022-07-28T02:24:39.154Z,62
2022-07-28T02:25:43.533Z,62
2022-07-28T02:26:52.748Z,62
2022-07-28T02:28:01.464Z,62
2022-07-28T02:29:07.096Z,62
2022-07-28T02:30:12.185Z,63
2022-07-28T02:31:20.198Z,63
2022-07-28T02:32:28.560Z,63
2022-07-28T02:33:58.163Z,63
2022-07-28T02:34:44.580Z,63
2022-07-28T02:35:49.324Z,63
2022-07-28T02:37:04.513Z,63
2022-07-28T02:38:09.217Z,63
2022-07-28T02:39:13.592Z,63
2022-07-28T02:40:18.725Z,63
2022-07-28T02:41:23.424Z,63
2022-07-28T02:42:28.059Z,63
2022-07-28T02:43:49.073Z,63
2022-07-28T02:44:37.333Z,63
2022-07-28T02:45:44.701Z,63
2022-07-28T02:46:49.052Z,63
2022-07-28T02:47:53.841Z,63
2022-07-28T02:48:58.478Z,63
2022-07-28T02:50:06.072Z,63
2022-07-28T02:51:11.316Z,63
2022-07-28T02:52:16.555Z,63
2022-07-28T02:53:21.625Z,63
2022-07-28T02:54:26.014Z,64
2022-07-28T02:56:36.225Z,63
2022-07-28T02:57:40.905Z,63
2022-07-28T02:58:45.569Z,63
2022-07-28T02:59:50.484Z,63
2022-07-28T03:00:55.545Z,63
2022-07-28T03:02:00.636Z,63
2022-07-28T03:03:05.062Z,63
2022-07-28T03:04:09.602Z,64
2022-07-28T03:05:14.754Z,64
2022-07-28T03:06:19.841Z,64
2022-07-28T03:07:25.960Z,64
2022-07-28T03:08:30.480Z,64
2022-07-28T03:09:35.049Z,64
2022-07-28T03:10:42.872Z,64
2022-07-28T03:11:48.069Z,64
2022-07-28T03:12:57.137Z,64
2022-07-28T03:14:02.004Z,64
2022-07-28T03:15:07.360Z,64
2022-07-28T03:16:12.208Z,64
2022-07-28T03:17:17.698Z,64
2022-07-28T03:18:22.185Z,64
2022-07-28T03:19:26.584Z,65
2022-07-28T03:20:35.657Z,65
2022-07-28T03:21:40.856Z,65
2022-07-28T03:22:52.680Z,65
2022-07-28T03:23:57.597Z,65
2022-07-28T03:25:04.064Z,65
2022-07-28T03:26:13.213Z,65
2022-07-28T03:27:20.385Z,65
2022-07-28T03:28:30.190Z,65
2022-07-28T03:29:34.674Z,64
2022-07-28T03:30:39.986Z,64
2022-07-28T03:31:45.357Z,65
2022-07-28T03:32:50.000Z,65
2022-07-28T03:33:55.500Z,65
2022-07-28T03:35:00.460Z,65
2022-07-28T03:36:06.552Z,66
2022-07-28T03:37:11.113Z,66
2022-07-28T03:38:20.231Z,65
2022-07-28T03:39:25.545Z,65
2022-07-28T03:40:31.505Z,65
2022-07-28T03:41:36.559Z,65
2022-07-28T03:42:42.044Z,65
2022-07-28T03:43:47.688Z,65
2022-07-28T03:44:52.981Z,65
2022-07-28T03:45:58.021Z,65
2022-07-28T03:47:04.516Z,65
2022-07-28T03:48:09.093Z,65
2022-07-28T03:49:14.075Z,65
2022-07-28T03:50:18.861Z,65
2022-07-28T03:51:26.561Z,65
2022-07-28T03:52:31.632Z,65
2022-07-28T03:53:36.172Z,65
2022-07-28T03:54:41.388Z,65
2022-07-28T03:55:45.873Z,66
2022-07-28T03:56:50.740Z,66
2022-07-28T03:57:55.865Z,65
2022-07-28T03:59:00.635Z,66
2022-07-28T04:00:09.620Z,66
2022-07-28T04:01:11.276Z,66
2022-07-28T04:02:16.065Z,66
2022-07-28T04:03:36.439Z,66
2022-07-28T04:04:31.172Z,66
2022-07-28T04:05:35.821Z,67
2022-07-28T04:06:40.764Z,66
2022-07-28T04:07:45.236Z,66
2022-07-28T04:08:49.620Z,66
2022-07-28T04:09:55.769Z,66
2022-07-28T04:11:01.137Z,66
2022-07-28T04:12:07.072Z,66
2022-07-28T04:13:11.700Z,66
2022-07-28T04:14:17.249Z,66
2022-07-28T04:15:22.185Z,66
2022-07-28T04:16:27.569Z,66
2022-07-28T04:17:32.209Z,66
2022-07-28T04:18:37.484Z,65
2022-07-28T04:19:43.384Z,65
2022-07-28T04:20:47.840Z,65
2022-07-28T04:21:53.332Z,65
2022-07-28T04:22:58.268Z,65
2022-07-28T04:24:02.858Z,65
2022-07-28T04:25:07.889Z,64
2022-07-28T04:26:12.792Z,64
2022-07-28T04:27:17.612Z,64
2022-07-28T04:28:22.311Z,64
2022-07-28T04:29:27.392Z,65
2022-07-28T04:30:31.621Z,65
2022-07-28T04:31:37.737Z,65
2022-07-28T04:32:44.069Z,65
2022-07-28T04:33:49.048Z,64
2022-07-28T04:34:54.824Z,65
2022-07-28T04:35:59.795Z,65
2022-07-28T04:37:05.545Z,65
2022-07-28T04:38:10.604Z,65
2022-07-28T04:39:15.333Z,65
2022-07-28T04:40:20.001Z,65
2022-07-28T04:41:24.521Z,65
2022-07-28T04:42:28.844Z,65
2022-07-28T04:43:33.408Z,65
2022-07-28T04:44:38.068Z,65
2022-07-28T04:45:45.910Z,65
2022-07-28T04:46:49.180Z,64
2022-07-28T04:47:54.121Z,64
2022-07-28T04:48:58.991Z,64
2022-07-28T04:50:04.289Z,64
2022-07-28T04:51:09.596Z,64
2022-07-28T04:52:16.279Z,64
2022-07-28T04:53:21.949Z,64
2022-07-28T04:54:27.629Z,64
2022-07-28T04:55:32.014Z,64
2022-07-28T04:56:36.529Z,64
2022-07-28T04:57:40.957Z,64
2022-07-28T04:58:45.933Z,64
2022-07-28T04:59:55.947Z,64
2022-07-28T05:01:04.209Z,64
2022-07-28T05:02:08.775Z,64
2022-07-28T05:03:13.392Z,64
2022-07-28T05:04:19.077Z,64
2022-07-28T05:05:23.848Z,63
2022-07-28T05:06:33.379Z,63
2022-07-28T05:07:42.896Z,63
2022-07-28T05:08:53.709Z,63
2022-07-28T05:09:58.477Z,63
2022-07-28T05:11:03.704Z,63
2022-07-28T05:12:08.273Z,63
2022-07-28T05:13:13.068Z,63
2022-07-28T05:14:18.488Z,63
2022-07-28T05:15:23.319Z,62
2022-07-28T05:16:32.316Z,62
2022-07-28T05:17:41.840Z,63
2022-07-28T05:18:46.672Z,62
2022-07-28T05:19:51.204Z,62
2022-07-28T05:20:56.504Z,61
2022-07-28T05:22:01.129Z,61
2022-07-28T05:23:06.427Z,61
2022-07-28T05:24:11.952Z,62
2022-07-28T05:25:16.681Z,62
2022-07-28T05:26:21.380Z,61
2022-07-28T05:27:26.199Z,61
2022-07-28T05:28:31.878Z,61
2022-07-28T05:29:37.592Z,62
2022-07-28T05:30:41.703Z,62
2022-07-28T05:31:46.591Z,62
2022-07-28T05:32:51.461Z,61
2022-07-28T05:33:55.972Z,61
2022-07-28T05:35:00.766Z,61
2022-07-28T05:36:07.039Z,61
2022-07-28T05:37:11.458Z,61
2022-07-28T05:38:17.103Z,61
2022-07-28T05:39:26.467Z,61
2022-07-28T05:40:31.398Z,61
2022-07-28T05:41:36.194Z,61
2022-07-28T05:42:42.142Z,61
2022-07-28T05:43:47.259Z,61
2022-07-28T05:44:52.359Z,61
2022-07-28T05:45:57.236Z,61
2022-07-28T05:47:02.602Z,61
2022-07-28T05:49:12.550Z,61
2022-07-28T05:50:17.146Z,61
2022-07-28T05:51:21.546Z,61
2022-07-28T05:52:25.811Z,60
2022-07-28T05:53:30.462Z,60
2022-07-28T05:54:36.934Z,60
2022-07-28T05:55:57.875Z,60
2022-07-28T05:56:50.113Z,60
2022-07-28T05:57:51.586Z,60
2022-07-28T05:58:56.308Z,60
2022-07-28T06:00:00.951Z,60
2022-07-28T06:01:05.855Z,60
2022-07-28T06:02:10.439Z,59
2022-07-28T06:03:19.913Z,60
2022-07-28T06:04:25.923Z,59
2022-07-28T06:05:29.807Z,59
2022-07-28T06:06:39.842Z,59
2022-07-28T06:07:45.928Z,59
2022-07-28T06:08:51.475Z,59
2022-07-28T06:09:56.695Z,59
2022-07-28T06:11:02.186Z,59
2022-07-28T06:12:11.723Z,59
2022-07-28T06:13:16.472Z,58
2022-07-28T06:14:21.926Z,58
2022-07-28T06:15:26.479Z,58
2022-07-28T06:16:32.031Z,58
2022-07-28T06:17:36.687Z,58
2022-07-28T06:18:41.551Z,58
2022-07-28T06:19:46.055Z,57
2022-07-28T06:20:50.642Z,58
2022-07-28T06:21:55.686Z,58
2022-07-28T06:23:01.030Z,58
2022-07-28T06:24:06.023Z,58
2022-07-28T06:25:10.851Z,58
2022-07-28T06:26:17.791Z,57
2022-07-28T06:27:23.922Z,57
2022-07-28T06:28:29.455Z,58
2022-07-28T06:29:34.395Z,57
2022-07-28T06:30:39.418Z,57
2022-07-28T06:31:44.216Z,57
2022-07-28T06:32:49.502Z,58
2022-07-28T06:33:55.539Z,58
2022-07-28T06:35:00.358Z,57
2022-07-28T06:36:06.011Z,57
2022-07-28T06:37:10.591Z,57
2022-07-28T06:38:16.046Z,56
2022-07-28T06:39:21.426Z,56
2022-07-28T07:01:55.551Z,55
2022-07-28T07:03:01.253Z,55
2022-07-28T07:04:05.336Z,56
2022-07-28T07:05:09.781Z,55
2022-07-28T07:06:15.670Z,55
2022-07-28T07:07:22.381Z,54
2022-07-28T07:08:28.673Z,55
2022-07-28T07:09:34.118Z,54
2022-07-28T07:10:39.949Z,54
2022-07-28T07:11:45.178Z,54
2022-07-28T07:12:49.762Z,54
2022-07-28T07:13:55.757Z,54
2022-07-28T07:15:00.474Z,54
2022-07-28T07:16:05.172Z,54
2022-07-28T07:17:09.807Z,54
2022-07-28T07:18:15.374Z,54
2022-07-28T07:19:20.556Z,53
2022-07-28T07:20:26.211Z,53
2022-07-28T07:21:31.260Z,53
2022-07-28T07:22:36.732Z,53
2022-07-28T07:23:44.188Z,54
2022-07-28T07:24:50.462Z,52
2022-07-28T07:25:53.403Z,52
2022-07-28T07:27:00.568Z,52
2022-07-28T07:28:05.740Z,52
2022-07-28T07:29:11.375Z,52
2022-07-28T07:30:16.481Z,52
2022-07-28T07:31:21.124Z,52
2022-07-28T07:32:26.147Z,53
2022-07-28T07:33:32.331Z,52
2022-07-28T07:34:39.616Z,52
2022-07-28T07:35:44.732Z,52
2022-07-28T07:36:50.944Z,53
2022-07-28T07:37:55.248Z,54
2022-07-28T07:39:06.268Z,53
2022-07-28T07:40:10.951Z,53
2022-07-28T07:41:15.960Z,53
2022-07-28T07:42:24.612Z,52
2022-07-28T07:43:27.296Z,52
2022-07-28T07:44:32.396Z,53
2022-07-28T07:45:37.138Z,53
2022-07-28T07:46:42.417Z,53
2022-07-28T07:47:47.997Z,53
2022-07-28T07:48:52.400Z,53
2022-07-28T07:49:57.864Z,53
2022-07-28T07:51:02.625Z,52
2022-07-28T07:52:07.381Z,52
2022-07-28T07:53:13.152Z,52
2022-07-28T07:54:18.251Z,52
2022-07-28T07:55:23.787Z,51
2022-07-28T07:56:28.543Z,51
2022-07-28T07:57:33.447Z,51
2022-07-28T07:58:38.388Z,51
2022-07-28T07:59:43.263Z,51
2022-07-28T08:00:51.499Z,51
2022-07-28T08:01:56.310Z,51
2022-07-28T08:03:02.578Z,51
2022-07-28T08:04:08.862Z,51
2022-07-28T08:05:15.809Z,52
2022-07-28T08:06:26.412Z,52
2022-07-28T08:07:25.583Z,52
2022-07-28T08:08:30.664Z,52
2022-07-28T08:09:35.840Z,52
2022-07-28T08:10:40.876Z,51
2022-07-28T08:11:45.812Z,51
2022-07-28T08:12:50.359Z,51
2022-07-28T08:13:54.783Z,51
2022-07-28T08:14:59.451Z,51
2022-07-28T08:16:03.991Z,51
2022-07-28T08:17:08.675Z,51
2022-07-28T08:18:15.199Z,51
2022-07-28T08:19:21.558Z,51
2022-07-28T08:20:28.595Z,51
2022-07-28T08:21:35.017Z,51
2022-07-28T08:22:39.501Z,51
2022-07-28T08:23:54.297Z,51
2022-07-28T08:24:59.922Z,51
2022-07-28T08:26:09.581Z,52
2022-07-28T08:27:14.481Z,51
2022-07-28T08:28:20.997Z,51
2022-07-28T08:29:34.477Z,51
2022-07-28T08:30:39.597Z,51
2022-07-28T08:32:11.801Z,51
2022-07-28T08:33:18.865Z,51
2022-07-28T08:35:34.883Z,51
2022-07-28T08:36:38.066Z,51
2022-07-28T08:37:46.350Z,51
2022-07-28T08:38:51.758Z,51
2022-07-28T08:39:56.493Z,51
2022-07-28T08:41:18.100Z,51
2022-07-28T08:43:06.797Z,51
2022-07-28T08:45:18.430Z,51
2022-07-28T08:46:23.720Z,51
2022-07-28T08:47:52.087Z,50
2022-07-28T08:49:29.507Z,50
2022-07-28T08:51:48.985Z,51
2022-07-28T08:53:26.144Z,50
2022-07-28T09:00:35.778Z,51
2022-07-28T09:02:04.718Z,51
2022-07-28T09:05:26.658Z,50
2022-07-28T09:07:11.536Z,50
2022-07-28T09:08:19.305Z,50
2022-07-28T09:10:29.178Z,51
2022-07-28T09:11:53.600Z,51
2022-07-28T09:13:56.585Z,50
2022-07-28T09:15:01.977Z,51
2022-07-28T09:16:20.056Z,51
2022-07-28T09:17:39.321Z,50
2022-07-28T09:18:44.030Z,50
2022-07-28T09:19:52.087Z,50
2022-07-28T09:21:01.860Z,50
2022-07-28T09:22:12.617Z,50
2022-07-28T09:23:33.866Z,50
2022-07-28T09:24:22.110Z,49
2022-07-28T09:25:35.509Z,50
2022-07-28T09:26:40.190Z,51
2022-07-28T09:27:55.420Z,50
2022-07-28T09:29:00.113Z,50
2022-07-28T09:30:04.950Z,50
2022-07-28T09:31:10.734Z,50
2022-07-28T09:32:15.341Z,50
2022-07-28T09:33:40.822Z,50
2022-07-28T09:34:25.602Z,50
2022-07-28T09:35:30.106Z,51
2022-07-28T09:36:36.241Z,51
2022-07-28T09:37:41.893Z,39
2022-07-28T09:38:51.528Z,39
2022-07-28T09:39:57.228Z,39
2022-07-28T09:41:02.745Z,39
2022-07-28T09:42:08.840Z,39
2022-07-28T09:43:13.299Z,39
2022-07-28T09:44:23.131Z,39
2022-07-28T09:45:29.291Z,39
2022-07-28T09:46:33.991Z,38
2022-07-28T09:47:38.802Z,39
2022-07-28T09:48:45.928Z,39
2022-07-28T09:49:50.405Z,38
2022-07-28T09:50:59.408Z,39
2022-07-28T09:52:37.731Z,38
2022-07-28T09:53:43.829Z,38
2022-07-28T09:55:04.595Z,39
2022-07-28T09:56:10.232Z,39
2022-07-28T09:57:19.184Z,38
2022-07-28T09:58:29.267Z,39
2022-07-28T09:59:34.368Z,39
2022-07-28T10:00:45.104Z,38
2022-07-28T10:01:49.544Z,38
2022-07-28T10:02:57.558Z,39
2022-07-28T10:04:02.885Z,39
2022-07-28T10:05:08.893Z,39
2022-07-28T10:06:13.995Z,38
2022-07-28T10:07:22.300Z,38
2022-07-28T10:08:29.914Z,39
2022-07-28T10:09:42.814Z,39
2022-07-28T10:10:58.895Z,38
2022-07-28T10:12:07.206Z,38
2022-07-28T10:13:17.578Z,39
2022-07-28T10:14:24.434Z,39
2022-07-28T10:15:32.893Z,39
2022-07-28T10:16:46.051Z,39
2022-07-28T10:17:54.975Z,39
2022-07-28T10:19:10.414Z,38
2022-07-28T10:20:15.682Z,39
2022-07-28T10:22:09.550Z,38
2022-07-28T10:23:22.130Z,39
2022-07-28T10:31:07.094Z,38
2022-07-28T10:32:13.419Z,39
2022-07-28T10:33:36.442Z,39
2022-07-28T10:34:40.878Z,39
2022-07-28T10:35:51.043Z,39
2022-07-28T10:36:51.058Z,39
2022-07-28T10:37:55.662Z,40
2022-07-28T10:39:00.897Z,40
2022-07-28T10:40:10.251Z,40
2022-07-28T10:41:16.022Z,39
2022-07-28T10:42:37.777Z,40
2022-07-28T10:43:48.010Z,40
2022-07-28T10:44:54.234Z,40
2022-07-28T10:46:08.988Z,40
2022-07-28T10:47:05.161Z,38
2022-07-28T10:48:09.911Z,39
2022-07-28T10:49:14.471Z,38
2022-07-28T10:50:18.842Z,38
2022-07-28T10:53:06.010Z,39
2022-07-28T10:56:43.404Z,39
2022-07-28T10:58:11.692Z,39
2022-07-28T10:59:58.051Z,39
2022-07-28T11:01:26.824Z,39
2022-07-28T11:05:18.810Z,40
2022-07-28T11:06:38.347Z,39
2022-07-28T11:11:57.949Z,39
2022-07-28T12:01:49.946Z,39
2022-07-28T12:02:56.532Z,39
2022-07-28T12:10:11.329Z,39
2022-07-28T12:11:32.562Z,39
2022-07-28T12:12:37.242Z,38
2022-07-28T12:13:45.974Z,38
2022-07-28T12:15:07.014Z,40
2022-07-28T12:16:22.886Z,40
2022-07-28T12:17:47.208Z,39
2022-07-28T12:18:55.502Z,39
2022-07-28T12:20:40.232Z,39
2022-07-28T12:21:49.136Z,39
2022-07-28T12:22:53.990Z,39
2022-07-28T12:24:05.766Z,39
2022-07-28T12:25:13.112Z,39
2022-07-28T12:26:16.359Z,39
2022-07-28T12:27:32.189Z,40
2022-07-28T12:28:36.396Z,39
2022-07-28T12:29:57.379Z,39
2022-07-28T15:08:35.520Z,36
2022-07-28T15:22:04.022Z,36
2022-07-28T15:33:57.375Z,36
2022-07-28T15:34:53.763Z,37
2022-07-28T15:35:59.630Z,37
2022-07-28T15:37:09.009Z,37
2022-07-28T15:38:16.671Z,36
2022-07-28T15:39:21.417Z,36
2022-07-28T15:40:27.576Z,36
2022-07-28T15:41:36.381Z,36
2022-07-28T15:43:42.299Z,37
2022-07-28T15:45:01.230Z,36
2022-07-28T15:46:12.601Z,36
2022-07-28T15:47:19.228Z,36
2022-07-28T15:48:27.128Z,36
2022-07-28T15:49:32.225Z,36
2022-07-28T15:50:37.393Z,36
2022-07-28T15:51:45.824Z,36
2022-07-28T15:52:52.325Z,35
2022-07-28T15:54:05.509Z,36
2022-07-28T15:55:17.621Z,36
2022-07-28T15:56:32.762Z,37
2022-07-28T15:57:43.981Z,37
2022-07-28T15:58:55.937Z,37
2022-07-28T16:00:09.567Z,37
2022-07-28T16:01:25.279Z,37
2022-07-28T16:02:30.997Z,37
2022-07-28T16:03:36.925Z,37
2022-07-28T16:04:50.015Z,37
2022-07-28T16:05:47.449Z,37
2022-07-28T16:06:56.961Z,37
2022-07-28T16:08:10.995Z,37
2022-07-28T16:09:45.224Z,37
2022-07-28T16:10:37.852Z,37
2022-07-28T16:11:45.545Z,37
2022-07-28T16:12:58.812Z,37
2022-07-28T16:14:09.035Z,37
2022-07-28T16:15:20.105Z,37
2022-07-28T16:16:29.173Z,37
2022-07-28T16:17:35.516Z,37
2022-07-28T16:19:25.298Z,37
2022-07-28T16:20:47.168Z,37
2022-07-28T16:22:44.674Z,37
2022-07-28T16:23:56.303Z,37
2022-07-28T16:25:06.290Z,37
2022-07-28T16:26:23.249Z,37
2022-07-28T16:27:43.789Z,37
2022-07-28T16:29:32.292Z,37
2022-07-28T16:31:10.068Z,37
2022-07-28T16:32:24.929Z,37
2022-07-28T16:34:01.104Z,37
2022-07-28T16:35:14.953Z,37
2022-07-28T16:36:31.155Z,37
2022-07-28T16:37:41.220Z,38
2022-07-28T16:38:51.750Z,38
2022-07-28T16:39:59.128Z,38
2022-07-28T16:41:07.289Z,38
2022-07-28T16:42:20.493Z,38
2022-07-28T16:43:36.278Z,38
2022-07-28T16:44:41.557Z,38
2022-07-28T16:45:47.762Z,37
2022-07-28T16:46:56.379Z,37
2022-07-28T16:48:00.730Z,37
2022-07-28T16:49:05.125Z,37
2022-07-28T16:50:09.470Z,37
2022-07-28T16:51:13.869Z,37
2022-07-28T16:52:19.640Z,37
2022-07-28T16:53:25.552Z,37
2022-07-28T16:54:30.153Z,37
2022-07-28T16:55:35.341Z,37
2022-07-28T16:56:44.709Z,37
2022-07-28T16:57:54.966Z,37
2022-07-28T16:59:00.239Z,38
2022-07-28T17:00:05.281Z,38
2022-07-28T17:01:10.258Z,37
2022-07-28T17:02:19.589Z,37
2022-07-28T17:03:24.329Z,37
2022-07-28T17:04:29.315Z,37
2022-07-28T17:05:34.085Z,38
2022-07-28T17:06:38.837Z,38
2022-07-28T17:07:52.510Z,37
2022-07-28T17:08:57.373Z,37
2022-07-28T17:10:02.105Z,38
2022-07-28T17:11:08.569Z,37
2022-07-28T17:12:19.525Z,37
2022-07-28T17:13:31.882Z,37
2022-07-28T17:14:38.580Z,37
2022-07-28T17:15:44.014Z,37
2022-07-28T17:16:49.593Z,37
2022-07-28T17:17:55.473Z,37
2022-07-28T17:19:44.949Z,37
2022-07-28T17:20:45.054Z,37
2022-07-28T17:22:31.129Z,37
2022-07-28T17:23:36.363Z,37
2022-07-28T17:25:01.214Z,38
2022-07-28T17:27:38.066Z,38
2022-07-28T17:29:12.522Z,38
2022-07-28T17:30:26.552Z,38
2022-07-28T18:54:48.133Z,44
2022-07-28T18:55:53.845Z,44
2022-07-28T18:56:59.353Z,44
2022-07-28T18:58:03.732Z,44
2022-07-28T18:59:10.153Z,44
2022-07-28T19:00:20.899Z,44
2022-07-28T19:01:27.986Z,44
2022-07-28T19:02:33.702Z,44
2022-07-28T19:03:40.878Z,44
2022-07-28T19:04:46.752Z,44
2022-07-28T19:05:51.512Z,44
2022-07-28T19:06:56.124Z,44
2022-07-28T19:08:06.372Z,44
2022-07-28T19:09:11.336Z,45
2022-07-28T23:49:21.528Z,66
2022-07-28T23:50:26.309Z,66
2022-07-28T23:51:41.108Z,65
2022-07-28T23:52:36.297Z,65
2022-07-28T23:53:45.230Z,65
2022-07-28T23:54:50.231Z,65
2022-07-28T23:55:54.895Z,66
2022-07-28T23:57:00.075Z,66
2022-07-28T23:58:06.144Z,66
2022-07-28T23:59:13.951Z,66
